Time;durP1;ratioP1;P1;durP2;ratioP2;P2;SDS_P1;SDS_P2;PMS_P1;PMS_P2;Temp;Humidity;BMP_temperature;BMP_pressure;BME280_temperature;BME280_humidity;BME280_pressure;Samples;Min_cycle;Max_cycle;Signal;HPM_P1;HPM_P2
2023/06/26 00:00:16;;;;;;;8.55;7.80;;;;;;;19.74;100.00;101085.53;1022720;29;20111;-83
2023/06/26 00:00:49;;;;;;;9.98;9.02;;;;;;;19.73;100.00;101076.63;1022937;29;20118;-83
2023/06/26 00:01:22;;;;;;;9.10;7.78;;;;;;;19.73;100.00;101081.22;1022404;29;20054;-83
2023/06/26 00:01:53;;;;;;;9.13;8.23;;;;;;;19.73;100.00;101081.22;1019536;29;20043;-83
2023/06/26 00:02:25;;;;;;;9.15;8.35;;;;;;;19.73;100.00;101071.22;1022988;29;20050;-83
2023/06/26 00:02:57;;;;;;;10.50;8.02;;;;;;;19.73;100.00;101081.22;1023350;28;20094;-83
2023/06/26 00:03:28;;;;;;;9.30;8.43;;;;;;;19.72;100.00;101077.72;1022198;28;20042;-83
2023/06/26 00:04:01;;;;;;;10.05;9.05;;;;;;;19.70;100.00;101076.34;1022548;29;20061;-83
2023/06/26 00:04:33;;;;;;;9.68;8.00;;;;;;;19.73;100.00;101081.22;1022782;29;20136;-83
2023/06/26 00:05:05;;;;;;;9.10;8.20;;;;;;;19.75;100.00;101081.75;1023323;28;20431;-83
2023/06/26 00:05:36;;;;;;;9.75;8.85;;;;;;;19.77;100.00;101082.28;1027486;28;20055;-83
2023/06/26 00:06:08;;;;;;;9.25;8.45;;;;;;;19.78;100.00;101078.50;1022371;29;20152;-83
2023/06/26 00:06:41;;;;;;;11.57;9.27;;;;;;;19.76;100.00;101075.28;1022706;29;20075;-83
2023/06/26 00:07:12;;;;;;;8.60;7.80;;;;;;;19.79;100.00;101073.91;1024849;28;20035;-83
2023/06/26 00:07:44;;;;;;;8.73;7.68;;;;;;;19.81;100.00;101077.97;1025663;28;20050;-83
2023/06/26 00:08:16;;;;;;;10.32;8.82;;;;;;;19.79;100.00;101069.31;1023363;28;20813;-83
2023/06/26 00:08:47;;;;;;;8.73;7.88;;;;;;;19.78;100.00;101075.00;1026541;28;20047;-83
2023/06/26 00:09:19;;;;;;;9.05;8.15;;;;;;;19.79;100.00;101074.72;1025863;28;20039;-83
2023/06/26 00:09:50;;;;;;;8.85;8.05;;;;;;;19.78;100.00;101078.50;1023287;29;20377;-83
2023/06/26 00:10:22;;;;;;;9.23;8.38;;;;;;;19.80;100.00;101075.53;1023105;28;20043;-83
2023/06/26 00:10:54;;;;;;;8.55;7.75;;;;;;;19.81;100.00;101072.56;1022760;29;20039;-83
2023/06/26 00:11:27;;;;;;;9.13;8.32;;;;;;;19.80;100.00;101076.34;1022241;29;20050;-83
2023/06/26 00:11:59;;;;;;;9.75;8.68;;;;;;;19.79;100.00;101068.50;1022583;29;20039;-83
2023/06/26 00:12:31;;;;;;;9.55;8.75;;;;;;;19.73;100.00;101071.22;1022836;29;20047;-83
2023/06/26 00:13:03;;;;;;;9.00;8.20;;;;;;;19.71;100.00;101072.53;1024017;28;20469;-83
2023/06/26 00:13:35;;;;;;;9.95;7.68;;;;;;;19.76;100.00;101069.88;1027624;28;20043;-83
2023/06/26 00:14:06;;;;;;;12.02;8.10;;;;;;;19.75;100.00;101081.75;1030547;28;20412;-83
2023/06/26 00:14:38;;;;;;;9.70;8.00;;;;;;;19.79;100.00;101073.91;1031334;28;20054;-83
2023/06/26 00:15:09;;;;;;;8.98;8.18;;;;;;;19.82;100.00;101070.66;1030585;28;20484;-83
2023/06/26 00:15:41;;;;;;;9.10;7.75;;;;;;;19.81;100.00;101072.56;1026622;28;20070;-83
2023/06/26 00:16:14;;;;;;;8.73;7.93;;;;;;;19.75;100.00;101069.06;1018983;29;20428;-83
2023/06/26 00:16:45;;;;;;;7.97;7.28;;;;;;;19.73;100.00;101070.41;1018591;29;20044;-82
2023/06/26 00:17:17;;;;;;;9.52;8.63;;;;;;;19.73;100.00;101067.72;1019466;29;20067;-83
2023/06/26 00:17:50;;;;;;;9.68;8.88;;;;;;;19.69;100.00;101075.53;1024035;28;20524;-83
2023/06/26 00:18:23;;;;;;;8.80;8.00;;;;;;;19.65;100.00;101069.03;1022335;28;20480;-83
2023/06/26 00:18:54;;;;;;;9.15;8.30;;;;;;;19.67;100.00;101071.47;1023707;28;20123;-83
2023/06/26 00:19:26;;;;;;;9.52;8.55;;;;;;;19.68;100.00;101073.09;1026745;28;20039;-83
2023/06/26 00:19:58;;;;;;;8.98;8.18;;;;;;;19.66;100.00;101061.75;1025650;28;20046;-83
2023/06/26 00:20:29;;;;;;;9.27;8.48;;;;;;;19.64;100.00;101069.31;1025557;28;20051;-83
2023/06/26 00:21:01;;;;;;;10.45;9.40;;;;;;;19.62;100.00;101071.47;1027063;28;20043;-83
2023/06/26 00:21:33;;;;;;;9.63;8.65;;;;;;;19.60;100.00;101065.53;1026854;28;20046;-82
2023/06/26 00:22:05;;;;;;;9.73;8.77;;;;;;;19.59;100.00;101058.50;1031088;28;20038;-83
2023/06/26 00:22:40;;;;;;;9.88;8.98;;;;;;;19.55;100.00;101063.66;1030538;28;20065;-83
2023/06/26 00:23:12;;;;;;;8.23;7.47;;;;;;;19.54;100.00;101061.22;1030089;28;20042;-83
2023/06/26 00:23:45;;;;;;;9.32;8.38;;;;;;;19.53;100.00;101059.56;1025431;28;20493;-83
2023/06/26 00:24:17;;;;;;;8.88;7.97;;;;;;;19.55;100.00;101063.66;1027102;28;20121;-83
2023/06/26 00:24:49;;;;;;;9.38;8.40;;;;;;;19.54;100.00;101066.63;1026555;28;20401;-82
2023/06/26 00:25:20;;;;;;;8.55;7.68;;;;;;;19.56;100.00;101059.06;1029151;28;20092;-83
2023/06/26 00:25:52;;;;;;;9.48;8.63;;;;;;;19.54;100.00;101062.03;1034809;28;20046;-83
2023/06/26 00:26:24;;;;;;;9.48;8.68;;;;;;;19.55;100.00;101063.66;1030535;28;20042;-83
2023/06/26 00:26:56;;;;;;;9.68;8.73;;;;;;;19.54;100.00;101056.63;1031285;28;20059;-83
2023/06/26 00:27:27;;;;;;;9.63;8.77;;;;;;;19.55;100.00;101054.72;1029554;28;20043;-83
2023/06/26 00:27:59;;;;;;;8.93;8.13;;;;;;;19.58;100.00;101065.81;1027736;28;20502;-83
2023/06/26 00:28:30;;;;;;;9.27;8.43;;;;;;;19.56;100.00;101057.16;1035237;28;20400;-83
2023/06/26 00:29:02;;;;;;;9.63;8.70;;;;;;;19.54;100.00;101061.22;1030567;28;20481;-83
2023/06/26 00:29:35;;;;;;;11.77;9.35;;;;;;;19.57;100.00;101060.69;1030649;28;20501;-83
2023/06/26 00:30:07;;;;;;;9.60;8.70;;;;;;;19.55;100.00;101052.03;1026774;28;20100;-83
2023/06/26 00:30:39;;;;;;;8.98;8.07;;;;;;;19.52;100.00;101049.84;1023349;28;20381;-83
2023/06/26 00:31:11;;;;;;;9.65;8.65;;;;;;;19.49;100.00;101053.91;1026534;28;20401;-83
2023/06/26 00:31:43;;;;;;;9.27;8.38;;;;;;;19.43;100.00;101050.34;1031278;28;20042;-82
2023/06/26 00:32:15;;;;;;;9.15;8.45;;;;;;;19.44;100.00;101045.78;1030571;28;20038;-83
2023/06/26 00:32:46;;;;;;;9.18;8.27;;;;;;;19.47;100.00;101052.56;1022632;29;20122;-83
2023/06/26 00:33:18;;;;;;;10.43;9.43;;;;;;;19.44;100.00;101051.97;1022585;29;20040;-83
2023/06/26 00:33:50;;;;;;;12.40;8.48;;;;;;;19.44;100.00;101051.97;1018842;29;20043;-83
2023/06/26 00:34:21;;;;;;;9.45;8.57;;;;;;;19.40;100.00;101050.91;1022717;28;20058;-83
2023/06/26 00:34:53;;;;;;;9.35;8.45;;;;;;;19.39;100.00;101051.97;1027088;28;20046;-83
2023/06/26 00:35:24;;;;;;;9.50;8.02;;;;;;;19.38;100.00;101047.66;1026139;28;20469;-83
2023/06/26 00:35:56;;;;;;;8.73;7.85;;;;;;;19.40;100.00;101045.50;1030492;28;20143;-83
2023/06/26 00:36:28;;;;;;;9.65;8.77;;;;;;;19.41;100.00;101049.00;1023563;28;20035;-83
2023/06/26 00:37:01;;;;;;;9.07;8.20;;;;;;;19.41;100.00;101049.81;1018450;29;20087;-83
2023/06/26 00:37:35;;;;;;;9.27;8.48;;;;;;;19.42;100.00;101043.34;1018448;29;20039;-83
2023/06/26 00:38:06;;;;;;;9.52;8.65;;;;;;;19.43;100.00;101049.56;1019145;29;20090;-83
2023/06/26 00:38:38;;;;;;;8.15;7.53;;;;;;;19.42;100.00;101043.34;1018461;29;20066;-83
2023/06/26 00:39:10;;;;;;;9.20;8.45;;;;;;;19.40;100.00;101047.38;1018891;29;20134;-83
2023/06/26 00:39:42;;;;;;;9.38;8.57;;;;;;;19.38;100.00;101044.97;1023308;28;20043;-83
2023/06/26 00:40:16;;;;;;;10.43;8.23;;;;;;;19.38;100.00;101042.25;1030751;28;20116;-83
2023/06/26 00:40:48;;;;;;;9.68;8.82;;;;;;;19.35;100.00;101045.50;1026737;28;20050;-82
2023/06/26 00:41:19;;;;;;;9.50;8.60;;;;;;;19.33;100.00;101044.97;1027844;28;20089;-83
2023/06/26 00:41:53;;;;;;;10.05;9.05;;;;;;;19.35;100.00;101040.09;1021831;29;20443;-83
2023/06/26 00:42:25;;;;;;;10.68;9.60;;;;;;;19.33;100.00;101039.56;1023349;28;20039;-83
2023/06/26 00:42:56;;;;;;;9.75;8.85;;;;;;;19.32;100.00;101037.94;1022862;29;20465;-83
2023/06/26 00:43:28;;;;;;;9.15;8.35;;;;;;;19.28;100.00;101039.56;1024578;28;20043;-83
2023/06/26 00:44:00;;;;;;;10.15;9.23;;;;;;;19.24;100.00;101040.38;1025501;28;20034;-83
2023/06/26 00:44:31;;;;;;;9.07;7.95;;;;;;;19.24;100.00;101040.38;1026652;28;20047;-83
2023/06/26 00:45:03;;;;;;;9.90;8.85;;;;;;;19.24;100.00;101033.09;1026495;28;20054;-83
2023/06/26 00:45:35;;;;;;;9.05;8.15;;;;;;;19.26;100.00;101030.91;1026519;28;20039;-83
2023/06/26 00:46:14;;;;;;;9.23;8.43;;;;;;;19.27;100.00;101035.25;1022505;29;20557;-83
2023/06/26 00:46:46;;;;;;;10.60;9.68;;;;;;;19.27;100.00;101029.03;1021731;29;20078;-83
2023/06/26 00:47:18;;;;;;;9.30;8.50;;;;;;;19.28;100.00;101036.88;1021065;29;20406;-83
2023/06/26 00:47:51;;;;;;;9.48;8.43;;;;;;;19.29;100.00;101030.38;1023192;28;20126;-82
2023/06/26 00:48:23;;;;;;;9.40;8.60;;;;;;;19.26;100.00;101028.22;1027930;28;20042;-82
2023/06/26 00:48:55;;;;;;;9.18;8.23;;;;;;;19.28;100.00;101036.88;1024380;28;20047;-82
2023/06/26 00:49:27;;;;;;;9.75;8.75;;;;;;;19.28;100.00;101028.75;1026207;28;20045;-83
2023/06/26 00:50:00;;;;;;;10.73;9.73;;;;;;;19.28;100.00;101026.06;1026588;28;20043;-82
2023/06/26 00:50:32;;;;;;;10.88;9.80;;;;;;;19.27;100.00;101029.84;1023067;28;20046;-83
2023/06/26 00:51:03;;;;;;;10.70;8.98;;;;;;;19.27;100.00;101029.03;1014187;29;20577;-83
2023/06/26 00:51:36;;;;;;;9.55;8.55;;;;;;;19.26;100.00;101025.53;1018312;29;20059;-83
2023/06/26 00:52:08;;;;;;;8.95;8.15;;;;;;;19.26;100.00;101022.81;1022661;28;20039;-83
2023/06/26 00:52:40;;;;;;;9.25;8.35;;;;;;;19.21;100.00;101033.63;1022638;29;20117;-83
2023/06/26 00:53:11;;;;;;;9.38;8.57;;;;;;;19.21;100.00;101030.94;1014816;29;20522;-83
2023/06/26 00:53:43;;;;;;;10.55;9.65;;;;;;;19.16;100.00;101025.50;1014868;29;20467;-82
2023/06/26 00:54:19;;;;;;;9.15;8.35;;;;;;;19.11;100.00;101033.59;1021563;29;20114;-82
2023/06/26 00:54:52;;;;;;;12.15;9.60;;;;;;;19.07;100.00;101029.81;1027052;28;20039;-83
2023/06/26 00:55:23;;;;;;;10.20;9.20;;;;;;;19.03;100.00;101023.34;1026748;28;20054;-83
2023/06/26 00:55:55;;;;;;;10.50;9.50;;;;;;;19.00;100.00;101030.06;1018770;29;20040;-82
2023/06/26 00:56:27;;;;;;;12.00;9.43;;;;;;;18.98;100.00;101026.03;1022244;29;20043;-83
2023/06/26 00:56:59;;;;;;;9.50;8.48;;;;;;;18.95;100.00;101031.97;1019518;29;20110;-82
2023/06/26 00:57:31;;;;;;;10.43;9.50;;;;;;;18.90;100.00;101019.28;1021753;28;20039;-83
2023/06/26 00:58:03;;;;;;;9.70;8.88;;;;;;;18.87;100.00;101027.06;1021617;29;20043;-83
2023/06/26 00:58:35;;;;;;;9.60;8.70;;;;;;;18.87;100.00;101027.06;1023646;28;20035;-83
2023/06/26 00:59:07;;;;;;;9.70;8.77;;;;;;;18.89;100.00;101027.59;1026316;28;20043;-83
2023/06/26 00:59:38;;;;;;;10.82;9.85;;;;;;;18.90;100.00;101029.22;1023193;28;20497;-83
2023/06/26 01:00:10;;;;;;;10.02;9.20;;;;;;;18.93;100.00;101017.94;1022251;28;20047;-83
2023/06/26 01:00:45;;;;;;;9.70;8.80;;;;;;;18.91;100.00;101020.09;1018520;29;20078;-83
2023/06/26 01:01:17;;;;;;;9.93;9.02;;;;;;;18.86;100.00;101018.16;1022731;28;20523;-83
2023/06/26 01:01:49;;;;;;;10.00;9.10;;;;;;;18.87;100.00;101024.38;1025396;28;20058;-83
2023/06/26 01:02:20;;;;;;;10.00;9.10;;;;;;;18.83;100.00;101024.91;1031045;28;20049;-83
2023/06/26 01:02:58;;;;;;;10.18;8.65;;;;;;;18.81;100.00;101026.25;1026370;28;20062;-83
2023/06/26 01:03:31;;;;;;;10.55;9.65;;;;;;;18.80;100.00;101020.03;1023308;28;20031;-83
2023/06/26 01:04:03;;;;;;;11.18;10.07;;;;;;;18.80;100.00;101020.03;1022521;29;20055;-82
2023/06/26 01:04:35;;;;;;;10.77;9.82;;;;;;;18.83;100.00;101019.50;1024203;28;20538;-83
2023/06/26 01:05:12;;;;;;;9.68;8.77;;;;;;;18.81;100.00;101018.97;1025494;28;20591;-83
2023/06/26 01:05:49;;;;;;;10.68;9.57;;;;;;;18.86;100.00;101022.75;1022523;29;20047;-83
2023/06/26 01:06:23;;;;;;;10.05;9.05;;;;;;;18.83;100.00;101018.69;1022928;29;20126;-83
2023/06/26 01:06:55;;;;;;;10.30;9.35;;;;;;;18.83;100.00;101026.78;1025566;28;20049;-82
2023/06/26 01:07:29;;;;;;;10.18;9.20;;;;;;;18.81;100.00;101021.66;1025876;28;20051;-82
2023/06/26 01:08:01;;;;;;;9.65;8.73;;;;;;;18.83;100.00;101018.69;1027273;28;20045;-83
2023/06/26 01:08:33;;;;;;;10.35;9.35;;;;;;;18.81;100.00;101018.16;1026325;28;20503;-83
2023/06/26 01:09:04;;;;;;;9.73;8.93;;;;;;;18.79;100.00;101015.72;1028321;28;20096;-83
2023/06/26 01:09:36;;;;;;;9.43;8.55;;;;;;;18.79;100.00;101010.31;1027138;28;20055;-83
2023/06/26 01:10:08;;;;;;;10.07;9.18;;;;;;;18.78;100.00;101018.69;1023716;28;20047;-82
2023/06/26 01:10:39;;;;;;;10.48;8.55;;;;;;;18.77;100.00;101015.19;1019429;29;20048;-82
2023/06/26 01:11:13;;;;;;;9.95;8.93;;;;;;;18.79;100.00;101013.03;1020017;29;20038;-82
2023/06/26 01:11:45;;;;;;;11.00;9.75;;;;;;;18.80;100.00;101011.13;1027132;28;20472;-82
2023/06/26 01:12:16;;;;;;;11.55;9.15;;;;;;;18.80;100.00;101014.66;1027494;28;20051;-83
2023/06/26 01:12:48;;;;;;;10.00;9.13;;;;;;;18.83;100.00;101016.00;1022476;29;20050;-83
2023/06/26 01:13:20;;;;;;;9.77;8.88;;;;;;;18.87;100.00;101018.97;1024158;28;20138;-82
2023/06/26 01:13:51;;;;;;;10.57;9.48;;;;;;;18.90;100.00;101021.13;1031909;28;20046;-83
2023/06/26 01:14:23;;;;;;;10.38;8.27;;;;;;;18.89;100.00;101017.63;1031421;28;20520;-83
2023/06/26 01:14:55;;;;;;;9.38;8.50;;;;;;;18.86;100.00;101011.94;1030715;28;20045;-83
2023/06/26 01:15:28;;;;;;;9.82;8.95;;;;;;;18.81;100.00;101007.34;1027120;28;20091;-82
2023/06/26 01:15:59;;;;;;;13.80;9.13;;;;;;;18.84;100.00;101013.03;1027357;28;20047;-83
2023/06/26 01:16:32;;;;;;;10.30;9.25;;;;;;;18.86;100.00;101012.75;1023692;28;20050;-83
2023/06/26 01:17:03;;;;;;;10.10;8.85;;;;;;;18.84;100.00;101015.72;1015873;29;20036;-83
2023/06/26 01:17:37;;;;;;;9.88;8.90;;;;;;;18.83;100.00;101013.28;1021166;28;20554;-83
2023/06/26 01:18:09;;;;;;;9.70;8.80;;;;;;;18.81;100.00;101007.34;1025360;28;20043;-83
2023/06/26 01:18:41;;;;;;;10.68;9.45;;;;;;;18.80;100.00;101011.13;1022305;29;20426;-83
2023/06/26 01:19:25;;;;;;;10.13;9.20;;;;;;;18.74;100.00;101015.72;1026112;28;20046;-82
2023/06/26 01:20:02;;;;;;;10.02;8.98;;;;;;;18.73;100.00;101007.88;1028118;28;20047;-82
2023/06/26 01:20:36;;;;;;;9.75;8.75;;;;;;;18.69;100.00;101004.91;1027753;28;20043;-83
2023/06/26 01:21:09;;;;;;;10.25;9.32;;;;;;;18.66;100.00;101005.44;1026950;28;20046;-82
2023/06/26 01:21:43;;;;;;;9.75;8.85;;;;;;;18.67;100.00;101009.78;1024016;28;20039;-83
2023/06/26 01:22:30;;;;;;;10.07;9.07;;;;;;;18.69;100.00;101013.00;1021900;29;20066;-82
2023/06/26 01:23:14;;;;;;;10.93;9.50;;;;;;;18.73;100.00;101007.88;1030315;28;20512;-83
2023/06/26 01:24:02;;;;;;;10.63;9.63;;;;;;;18.78;100.00;101010.59;1030745;28;20037;-82
2023/06/26 01:24:37;;;;;;;10.45;9.40;;;;;;;18.80;100.00;101003.84;1027143;28;20588;-83
2023/06/26 01:25:24;;;;;;;11.50;9.55;;;;;;;18.74;100.00;101004.91;1023189;29;20044;-82
2023/06/26 01:26:16;;;;;;;10.10;9.23;;;;;;;18.72;100.00;101006.25;1027125;28;20050;-82
2023/06/26 01:26:49;;;;;;;10.70;9.50;;;;;;;18.69;100.00;101004.91;1027123;28;20106;-83
2023/06/26 01:27:22;;;;;;;9.98;9.18;;;;;;;18.69;100.00;101010.31;1027205;28;20050;-82
2023/06/26 01:27:54;;;;;;;8.93;8.13;;;;;;;18.69;100.00;100996.81;1027221;28;20517;-83
2023/06/26 01:28:26;;;;;;;9.88;8.93;;;;;;;18.67;100.00;101004.38;1019299;29;20047;-83
2023/06/26 01:28:59;;;;;;;9.50;8.55;;;;;;;18.64;100.00;101004.09;1019355;29;20055;-83
2023/06/26 01:29:32;;;;;;;10.57;9.57;;;;;;;18.66;100.00;101001.94;1020608;29;20044;-83
2023/06/26 01:30:05;;;;;;;10.82;9.40;;;;;;;18.70;100.00;100998.44;1027049;28;20043;-82
2023/06/26 01:30:43;;;;;;;10.70;9.30;;;;;;;18.71;100.00;101000.06;1016694;29;20104;-82
2023/06/26 01:31:15;;;;;;;8.88;7.97;;;;;;;18.70;100.00;100994.94;1022361;29;20048;-83
2023/06/26 01:31:49;;;;;;;10.93;9.90;;;;;;;18.69;100.00;100996.81;1021740;29;20040;-83
2023/06/26 01:32:22;;;;;;;10.15;9.13;;;;;;;18.67;100.00;100996.28;1026974;28;20047;-83
2023/06/26 01:32:53;;;;;;;10.23;9.32;;;;;;;18.63;100.00;100997.88;1026223;28;20043;-83
2023/06/26 01:33:26;;;;;;;11.35;8.85;;;;;;;18.58;100.00;101002.41;1028717;28;20133;-82
2023/06/26 01:33:59;;;;;;;11.38;9.52;;;;;;;18.51;100.00;100997.25;1026985;28;20473;-83
2023/06/26 01:34:30;;;;;;;9.63;8.55;;;;;;;18.49;100.00;100996.72;1027205;28;20050;-82
2023/06/26 01:35:06;;;;;;;11.02;8.73;;;;;;;18.49;100.00;100996.72;1022140;28;20055;-82
2023/06/26 01:35:38;;;;;;;10.38;9.48;;;;;;;18.51;100.00;100999.97;1022377;28;20506;-82
2023/06/26 01:36:10;;;;;;;10.07;8.85;;;;;;;18.54;100.00;100994.03;1030307;28;20038;-82
2023/06/26 01:36:42;;;;;;;10.27;9.25;;;;;;;18.57;100.00;100993.50;1024155;28;20059;-82
2023/06/26 01:37:13;;;;;;;9.70;8.70;;;;;;;18.58;100.00;100995.13;1025342;28;20129;-83
2023/06/26 01:37:45;;;;;;;11.05;9.93;;;;;;;18.58;100.00;100995.13;1021806;29;20039;-82
2023/06/26 01:38:23;;;;;;;9.68;8.85;;;;;;;18.52;100.00;100990.78;1023453;28;20517;-83
2023/06/26 01:38:54;;;;;;;12.85;9.43;;;;;;;18.47;100.00;100993.47;1024338;28;20561;-83
2023/06/26 01:39:28;;;;;;;9.43;8.52;;;;;;;18.45;100.00;100991.03;1024678;28;20046;-82
2023/06/26 01:39:59;;;;;;;12.00;8.98;;;;;;;18.42;100.00;100999.66;1026742;28;20549;-82
2023/06/26 01:40:31;;;;;;;8.98;8.18;;;;;;;18.39;100.00;100991.31;1027859;28;20047;-83
2023/06/26 01:41:03;;;;;;;10.35;8.98;;;;;;;18.40;100.00;100998.31;1028305;28;20035;-83
2023/06/26 01:41:35;;;;;;;10.02;8.98;;;;;;;18.42;100.00;100998.84;1026861;28;20424;-82
2023/06/26 01:42:07;;;;;;;9.43;8.52;;;;;;;18.45;100.00;101001.84;1029736;28;20043;-83
2023/06/26 01:42:41;;;;;;;10.63;9.50;;;;;;;18.49;100.00;101002.94;1029788;28;20520;-82
2023/06/26 01:43:41;;;;;;;10.88;9.77;;;;;;;18.55;100.00;100995.66;1026986;28;20054;-83
2023/06/26 01:44:27;;;;;;;8.75;7.95;;;;;;;18.61;100.00;100999.16;1022819;29;20046;-83
2023/06/26 01:45:23;;;;;;;11.00;9.98;;;;;;;18.66;100.00;101002.75;1024865;28;20050;-83
2023/06/26 01:46:00;;;;;;;10.48;9.43;;;;;;;18.72;100.00;101008.97;1028700;28;20047;-83
2023/06/26 01:46:42;;;;;;;9.55;8.75;;;;;;;18.76;100.00;101008.16;1030992;28;20050;-83
2023/06/26 01:47:20;;;;;;;10.30;9.38;;;;;;;18.81;100.00;101010.88;1027164;28;20271;-83
2023/06/26 01:47:54;;;;;;;10.20;9.30;;;;;;;18.86;100.00;101006.56;1027183;28;20042;-83
2023/06/26 01:48:31;;;;;;;12.50;11.02;;;;;;;18.87;100.00;101008.19;1023653;29;20039;-83
2023/06/26 01:49:14;;;;;;;13.35;11.55;;;;;;;18.90;100.00;101004.94;1025729;28;20035;-83
2023/06/26 01:50:04;;;;;;;11.15;10.15;;;;;;;18.89;100.00;101006.00;1023635;29;20047;-83
2023/06/26 01:50:37;;;;;;;10.75;9.75;;;;;;;18.85;100.00;101000.34;1031131;28;20038;-82
2023/06/26 01:51:10;;;;;;;12.35;9.75;;;;;;;18.83;100.00;101003.31;1019753;29;20818;-83
2023/06/26 01:52:02;;;;;;;11.73;10.52;;;;;;;18.82;100.00;101007.09;1022133;28;20999;-83
2023/06/26 01:52:57;;;;;;;10.25;9.15;;;;;;;18.85;100.00;101000.34;1025568;28;20421;-83
2023/06/26 01:53:34;;;;;;;10.93;9.90;;;;;;;18.84;100.00;100994.13;1025508;28;20046;-83
2023/06/26 01:54:09;;;;;;;11.23;10.15;;;;;;;18.84;100.00;100996.03;1024253;28;20121;-82
2023/06/26 01:55:02;;;;;;;13.40;9.98;;;;;;;18.78;100.00;101003.31;1026238;28;20058;-83
2023/06/26 01:55:41;;;;;;;11.57;10.38;;;;;;;18.77;100.00;100999.00;1022941;28;20047;-83
2023/06/26 01:56:15;;;;;;;10.15;9.18;;;;;;;18.75;100.00;101006.53;1023132;29;20407;-82
2023/06/26 01:56:50;;;;;;;9.57;8.68;;;;;;;18.76;100.00;101005.47;1023382;28;20451;-83
2023/06/26 01:57:23;;;;;;;10.27;9.18;;;;;;;18.72;100.00;100998.97;1027373;28;20049;-83
2023/06/26 01:57:56;;;;;;;9.95;9.05;;;;;;;18.69;100.00;101002.22;1022778;29;20047;-83
2023/06/26 01:58:28;;;;;;;10.88;9.73;;;;;;;18.68;100.00;100989.81;1022862;29;20043;-83
2023/06/26 01:59:01;;;;;;;10.20;9.38;;;;;;;18.68;100.00;101000.59;1027606;28;20043;-83
2023/06/26 01:59:33;;;;;;;9.65;8.75;;;;;;;18.68;100.00;100994.38;1026902;28;20038;-83
2023/06/26 02:00:10;;;;;;;11.23;9.73;;;;;;;18.70;100.00;100998.44;1022811;29;20540;-83
2023/06/26 02:00:44;;;;;;;12.65;9.90;;;;;;;18.69;100.00;100994.13;1019322;29;20577;-82
2023/06/26 02:01:16;;;;;;;10.10;9.10;;;;;;;18.65;100.00;100995.72;1027385;28;20039;-82
2023/06/26 02:01:48;;;;;;;10.63;9.52;;;;;;;18.62;100.00;100998.94;1026618;28;20039;-82
2023/06/26 02:02:19;;;;;;;10.00;9.10;;;;;;;18.65;100.00;101000.31;1021840;28;20449;-83
2023/06/26 02:02:51;;;;;;;13.50;10.02;;;;;;;18.65;100.00;100993.03;1020506;29;20445;-82
2023/06/26 02:03:24;;;;;;;9.13;8.30;;;;;;;18.67;100.00;100998.16;1023426;28;20501;-83
2023/06/26 02:03:56;;;;;;;11.38;10.27;;;;;;;18.66;100.00;100997.34;1027615;28;20086;-83
2023/06/26 02:04:28;;;;;;;9.73;8.82;;;;;;;18.61;100.00;100997.28;1029574;28;20042;-83
2023/06/26 02:04:59;;;;;;;10.70;9.68;;;;;;;18.62;100.00;100996.25;1022702;29;20489;-83
2023/06/26 02:05:31;;;;;;;9.52;8.70;;;;;;;18.63;100.00;101000.59;1023150;28;20482;-82
2023/06/26 02:06:04;;;;;;;11.55;9.68;;;;;;;18.64;100.00;100999.50;1026960;28;20055;-82
2023/06/26 02:06:36;;;;;;;10.65;9.65;;;;;;;18.72;100.00;101007.06;1026688;28;20046;-83
2023/06/26 02:07:09;;;;;;;11.90;10.73;;;;;;;18.75;100.00;101006.53;1027116;28;20571;-82
2023/06/26 02:07:41;;;;;;;11.90;10.70;;;;;;;18.75;100.00;101006.53;1027063;28;20050;-82
2023/06/26 02:08:14;;;;;;;11.18;10.07;;;;;;;18.79;100.00;101017.63;1026805;28;20489;-83
2023/06/26 02:08:52;;;;;;;10.73;9.73;;;;;;;18.82;100.00;101007.09;1026963;28;20106;-82
2023/06/26 02:09:24;;;;;;;11.70;9.93;;;;;;;18.87;100.00;101014.38;1026634;28;20046;-82
2023/06/26 02:09:55;;;;;;;10.95;9.85;;;;;;;18.90;100.00;101013.03;1026003;28;20050;-83
2023/06/26 02:10:27;;;;;;;10.55;9.55;;;;;;;18.95;100.00;101010.38;1027097;28;20039;-83
2023/06/26 02:11:00;;;;;;;11.00;9.93;;;;;;;18.96;100.00;101012.00;1026638;28;20038;-83
2023/06/26 02:11:32;;;;;;;11.43;10.25;;;;;;;18.98;100.00;101015.22;1027412;28;20386;-82
2023/06/26 02:12:04;;;;;;;10.68;9.68;;;;;;;18.98;100.00;101012.53;1026815;28;20046;-83
2023/06/26 02:12:37;;;;;;;11.40;10.13;;;;;;;18.99;100.00;101012.25;1026844;28;20049;-83
2023/06/26 02:13:09;;;;;;;11.88;10.35;;;;;;;18.97;100.00;101013.59;1023236;28;20066;-83
2023/06/26 02:13:41;;;;;;;11.32;10.27;;;;;;;19.02;100.00;101016.31;1024137;28;20591;-82
2023/06/26 02:14:12;;;;;;;11.75;10.55;;;;;;;19.05;100.00;101013.88;1025832;28;20053;-82
2023/06/26 02:14:44;;;;;;;11.57;10.48;;;;;;;19.01;100.00;101020.09;1027365;28;20047;-82
2023/06/26 02:15:16;;;;;;;10.77;9.77;;;;;;;19.02;100.00;101009.03;1024815;28;20122;-82
2023/06/26 02:15:48;;;;;;;9.80;8.95;;;;;;;19.00;100.00;101013.06;1026803;28;20039;-82
2023/06/26 02:16:19;;;;;;;11.10;10.07;;;;;;;19.00;100.00;101007.66;1025506;28;20149;-83
2023/06/26 02:16:51;;;;;;;11.50;9.40;;;;;;;18.99;100.00;101006.06;1027521;28;20053;-83
2023/06/26 02:17:22;;;;;;;13.75;10.07;;;;;;;18.94;100.00;101011.44;1024582;28;20494;-83
2023/06/26 02:17:54;;;;;;;10.52;9.45;;;;;;;18.91;100.00;101009.28;1027445;28;20042;-82
2023/06/26 02:18:26;;;;;;;10.32;9.43;;;;;;;18.96;100.00;101018.19;1026598;28;20085;-82
2023/06/26 02:18:57;;;;;;;10.40;9.15;;;;;;;18.96;100.00;101014.69;1026973;28;20299;-83
2023/06/26 02:19:29;;;;;;;9.70;8.80;;;;;;;18.98;100.00;101015.22;1027153;28;20505;-82
2023/06/26 02:20:03;;;;;;;11.68;10.48;;;;;;;18.93;100.00;101015.22;1026369;28;20043;-83
2023/06/26 02:20:37;;;;;;;10.27;9.38;;;;;;;18.88;100.00;101004.41;1026831;28;20054;-83
2023/06/26 02:21:10;;;;;;;14.38;9.43;;;;;;;18.82;100.00;101004.38;1027144;28;20461;-83
2023/06/26 02:21:42;;;;;;;10.02;8.50;;;;;;;18.81;100.00;101008.16;1028384;28;20082;-82
2023/06/26 02:22:15;;;;;;;11.32;9.43;;;;;;;18.79;100.00;101004.13;1027757;28;20461;-82
2023/06/26 02:22:46;;;;;;;10.45;9.38;;;;;;;18.78;100.00;101000.59;1026843;28;20043;-83
2023/06/26 02:23:18;;;;;;;10.32;9.23;;;;;;;18.86;100.00;101006.56;1027562;28;20050;-82
2023/06/26 02:23:49;;;;;;;10.60;9.50;;;;;;;18.82;100.00;101012.50;1024255;28;20051;-82
2023/06/26 02:24:21;;;;;;;10.50;9.60;;;;;;;18.87;100.00;101010.88;1027428;28;20053;-82
2023/06/26 02:24:52;;;;;;;10.70;9.70;;;;;;;18.86;100.00;101011.94;1026728;28;20038;-82
2023/06/26 02:25:24;;;;;;;9.45;8.50;;;;;;;18.80;100.00;101011.13;1026368;28;20051;-82
2023/06/26 02:25:56;;;;;;;10.82;9.30;;;;;;;18.85;100.00;101016.53;1023503;28;20513;-83
2023/06/26 02:26:28;;;;;;;10.35;8.93;;;;;;;18.88;100.00;101009.78;1021017;29;20058;-82
2023/06/26 02:26:59;;;;;;;10.93;8.73;;;;;;;18.89;100.00;101017.63;1022767;29;20046;-82
2023/06/26 02:27:31;;;;;;;11.65;10.15;;;;;;;18.97;100.00;101017.13;1023851;28;20063;-82
2023/06/26 02:28:03;;;;;;;9.88;8.93;;;;;;;19.02;100.00;101017.13;1025186;28;20606;-83
2023/06/26 02:28:34;;;;;;;11.20;10.13;;;;;;;19.01;100.00;101025.50;1023646;28;20043;-82
2023/06/26 02:29:06;;;;;;;9.68;8.88;;;;;;;19.06;100.00;101026.31;1027196;28;20480;-83
2023/06/26 02:29:39;;;;;;;14.43;9.77;;;;;;;19.11;100.00;101020.91;1026362;28;20514;-83
2023/06/26 02:30:12;;;;;;;10.07;8.95;;;;;;;19.05;100.00;101026.56;1027987;28;20129;-83
2023/06/26 02:30:43;;;;;;;10.05;9.07;;;;;;;19.04;100.00;101024.94;1031515;28;20046;-82
2023/06/26 02:31:15;;;;;;;10.40;9.50;;;;;;;19.08;100.00;101020.63;1027211;28;20034;-83
2023/06/26 02:31:46;;;;;;;10.57;9.57;;;;;;;19.05;100.00;101021.16;1027049;28;20536;-83
2023/06/26 02:32:20;;;;;;;11.05;10.05;;;;;;;19.03;100.00;101029.53;1023525;29;20125;-83